sensor_id;sensor_type;location;lat;lon;timestamp;pressure;altitude;pressure_sealevel;temperature;humidity
49341;BME280;35209;51.050;13.678;2023-06-01T00:00:07;100272.53;;;14.64;63.00
49341;BME280;35209;51.050;13.678;2023-06-01T00:05:13;100270.94;;;15.00;62.52
49341;BME280;35209;51.050;13.678;2023-06-01T00:10:15;100268.88;;;14.87;62.21
49341;BME280;35209;51.050;13.678;2023-06-01T00:15:17;100264.84;;;14.38;63.05
49341;BME280;35209;51.050;13.678;2023-06-01T00:20:19;100259.72;;;14.35;64.50
49341;BME280;35209;51.050;13.678;2023-06-01T00:25:20;100255.81;;;14.64;63.02
49341;BME280;35209;51.050;13.678;2023-06-01T00:30:22;100256.59;;;14.25;65.02
49341;BME280;35209;51.050;13.678;2023-06-01T00:35:24;100262.81;;;14.24;64.77
49341;BME280;35209;51.050;13.678;2023-06-01T00:40:26;100262.50;;;14.32;65.32
49341;BME280;35209;51.050;13.678;2023-06-01T00:45:28;100261.84;;;14.27;64.67
49341;BME280;35209;51.050;13.678;2023-06-01T00:50:30;100260.53;;;14.17;65.44
49341;BME280;35209;51.050;13.678;2023-06-01T00:55:32;100255.69;;;14.06;66.48
49341;BME280;35209;51.050;13.678;2023-06-01T01:00:36;100259.75;;;13.93;66.87
49341;BME280;35209;51.050;13.678;2023-06-01T01:05:39;100259.00;;;13.69;67.88
49341;BME280;35209;51.050;13.678;2023-06-01T01:10:47;100260.06;;;13.43;70.19
49341;BME280;35209;51.050;13.678;2023-06-01T01:15:55;100255.13;;;13.77;69.17
49341;BME280;35209;51.050;13.678;2023-06-01T01:21:03;100255.53;;;13.46;70.53
49341;BME280;35209;51.050;13.678;2023-06-01T01:26:51;100263.91;;;13.34;70.69
49341;BME280;35209;51.050;13.678;2023-06-01T01:31:55;100266.94;;;13.69;70.86
49341;BME280;35209;51.050;13.678;2023-06-01T01:36:58;100263.47;;;13.67;70.89
49341;BME280;35209;51.050;13.678;2023-06-01T01:42:00;100260.16;;;13.40;72.21
49341;BME280;35209;51.050;13.678;2023-06-01T01:47:19;100261.56;;;13.03;73.92
49341;BME280;35209;51.050;13.678;2023-06-01T01:52:37;100246.81;;;13.21;74.22
49341;BME280;35209;51.050;13.678;2023-06-01T01:57:41;100235.31;;;13.22;73.83
49341;BME280;35209;51.050;13.678;2023-06-01T02:02:47;100239.34;;;13.08;74.94
49341;BME280;35209;51.050;13.678;2023-06-01T02:07:50;100235.59;;;12.92;75.68
49341;BME280;35209;51.050;13.678;2023-06-01T02:12:52;100231.75;;;12.77;77.63
49341;BME280;35209;51.050;13.678;2023-06-01T02:17:54;100233.72;;;12.72;76.95
49341;BME280;35209;51.050;13.678;2023-06-01T02:22:56;100238.81;;;12.77;77.09
49341;BME280;35209;51.050;13.678;2023-06-01T02:27:58;100236.72;;;13.08;76.57
49341;BME280;35209;51.050;13.678;2023-06-01T02:32:59;100218.88;;;13.15;75.20
49341;BME280;35209;51.050;13.678;2023-06-01T02:38:02;100218.75;;;12.73;77.20
49341;BME280;35209;51.050;13.678;2023-06-01T02:43:04;100220.88;;;12.40;78.66
49341;BME280;35209;51.050;13.678;2023-06-01T02:48:06;100202.91;;;12.73;78.00
49341;BME280;35209;51.050;13.678;2023-06-01T02:53:08;100205.59;;;12.48;79.24
49341;BME280;35209;51.050;13.678;2023-06-01T02:58:10;100203.28;;;12.40;78.67
49341;BME280;35209;51.050;13.678;2023-06-01T03:03:41;100215.44;;;12.19;80.81
49341;BME280;35209;51.050;13.678;2023-06-01T03:08:43;100222.84;;;12.08;81.15
49341;BME280;35209;51.050;13.678;2023-06-01T03:14:02;100222.47;;;12.19;81.49
49341;BME280;35209;51.050;13.678;2023-06-01T03:19:04;100221.94;;;12.34;81.14
49341;BME280;35209;51.050;13.678;2023-06-01T03:24:07;100215.66;;;12.85;78.89
49341;BME280;35209;51.050;13.678;2023-06-01T03:29:09;100227.09;;;12.37;81.47
49341;BME280;35209;51.050;13.678;2023-06-01T03:34:11;100237.47;;;12.17;83.76
49341;BME280;35209;51.050;13.678;2023-06-01T03:39:16;100230.38;;;12.67;81.78
49341;BME280;35209;51.050;13.678;2023-06-01T03:44:19;100226.31;;;12.58;82.09
49341;BME280;35209;51.050;13.678;2023-06-01T03:49:21;100233.13;;;12.41;83.88
49341;BME280;35209;51.050;13.678;2023-06-01T03:54:23;100224.28;;;12.65;82.86
49341;BME280;35209;51.050;13.678;2023-06-01T03:59:25;100213.41;;;12.74;82.47
49341;BME280;35209;51.050;13.678;2023-06-01T04:04:28;100218.78;;;12.95;82.18
49341;BME280;35209;51.050;13.678;2023-06-01T04:09:30;100214.25;;;12.98;82.03
49341;BME280;35209;51.050;13.678;2023-06-01T04:14:32;100214.56;;;13.12;81.04
49341;BME280;35209;51.050;13.678;2023-06-01T04:19:34;100226.16;;;13.08;80.76
49341;BME280;35209;51.050;13.678;2023-06-01T04:24:41;100231.81;;;13.21;79.22
49341;BME280;35209;51.050;13.678;2023-06-01T04:29:43;100233.97;;;13.11;79.63
49341;BME280;35209;51.050;13.678;2023-06-01T04:34:46;100238.00;;;13.44;78.25
49341;BME280;35209;51.050;13.678;2023-06-01T04:39:49;100233.75;;;13.40;79.03
49341;BME280;35209;51.050;13.678;2023-06-01T04:44:53;100233.00;;;13.58;78.96
49341;BME280;35209;51.050;13.678;2023-06-01T04:49:55;100233.84;;;13.80;78.91
49341;BME280;35209;51.050;13.678;2023-06-01T04:54:57;100225.13;;;13.99;78.12
49341;BME280;35209;51.050;13.678;2023-06-01T04:59:59;100227.13;;;14.55;73.30
49341;BME280;35209;51.050;13.678;2023-06-01T05:05:02;100212.03;;;14.36;73.31
49341;BME280;35209;51.050;13.678;2023-06-01T05:10:05;100206.75;;;14.36;72.33
49341;BME280;35209;51.050;13.678;2023-06-01T05:15:16;100207.97;;;14.69;70.18
49341;BME280;35209;51.050;13.678;2023-06-01T05:20:19;100210.19;;;15.16;68.87
49341;BME280;35209;51.050;13.678;2023-06-01T05:25:29;100213.00;;;15.85;64.91
49341;BME280;35209;51.050;13.678;2023-06-01T05:30:31;100216.84;;;16.63;59.19
49341;BME280;35209;51.050;13.678;2023-06-01T05:35:34;100218.56;;;17.29;56.68
49341;BME280;35209;51.050;13.678;2023-06-01T05:40:41;100215.47;;;17.82;54.92
49341;BME280;35209;51.050;13.678;2023-06-01T05:45:43;100221.69;;;17.67;55.00
49341;BME280;35209;51.050;13.678;2023-06-01T05:50:45;100227.25;;;18.08;53.98
49341;BME280;35209;51.050;13.678;2023-06-01T05:55:47;100224.75;;;18.78;52.40
49341;BME280;35209;51.050;13.678;2023-06-01T06:00:52;100224.78;;;19.20;51.34
49341;BME280;35209;51.050;13.678;2023-06-01T06:05:54;100218.84;;;18.87;52.49
49341;BME280;35209;51.050;13.678;2023-06-01T06:10:56;100216.41;;;18.70;53.12
49341;BME280;35209;51.050;13.678;2023-06-01T06:15:58;100214.34;;;19.02;50.97
49341;BME280;35209;51.050;13.678;2023-06-01T06:21:00;100211.94;;;19.12;51.52
49341;BME280;35209;51.050;13.678;2023-06-01T06:26:02;100211.53;;;19.32;51.81
49341;BME280;35209;51.050;13.678;2023-06-01T06:31:04;100213.63;;;19.27;50.58
49341;BME280;35209;51.050;13.678;2023-06-01T06:36:06;100204.59;;;18.88;53.72
49341;BME280;35209;51.050;13.678;2023-06-01T06:41:07;100208.66;;;19.35;52.34
49341;BME280;35209;51.050;13.678;2023-06-01T06:46:10;100217.69;;;19.60;50.25
49341;BME280;35209;51.050;13.678;2023-06-01T06:51:11;100210.56;;;19.33;51.12
49341;BME280;35209;51.050;13.678;2023-06-01T06:56:13;100210.31;;;19.24;51.96
49341;BME280;35209;51.050;13.678;2023-06-01T07:01:15;100206.28;;;19.58;53.24
49341;BME280;35209;51.050;13.678;2023-06-01T07:06:18;100206.44;;;19.69;51.44
49341;BME280;35209;51.050;13.678;2023-06-01T07:11:19;100209.03;;;19.29;52.27
49341;BME280;35209;51.050;13.678;2023-06-01T07:16:23;100200.63;;;19.23;53.14
49341;BME280;35209;51.050;13.678;2023-06-01T07:21:26;100206.84;;;19.36;54.16
49341;BME280;35209;51.050;13.678;2023-06-01T07:26:28;100202.06;;;19.41;52.80
49341;BME280;35209;51.050;13.678;2023-06-01T07:31:32;100191.00;;;19.74;53.34
49341;BME280;35209;51.050;13.678;2023-06-01T07:36:34;100185.00;;;20.23;51.34
49341;BME280;35209;51.050;13.678;2023-06-01T07:41:38;100172.81;;;20.19;52.91
49341;BME280;35209;51.050;13.678;2023-06-01T07:46:41;100178.00;;;20.72;50.48
49341;BME280;35209;51.050;13.678;2023-06-01T07:51:43;100177.81;;;20.75;51.13
49341;BME280;35209;51.050;13.678;2023-06-01T07:56:45;100176.25;;;20.96;49.41
49341;BME280;35209;51.050;13.678;2023-06-01T08:01:49;100181.41;;;21.23;49.73
49341;BME280;35209;51.050;13.678;2023-06-01T08:06:51;100176.75;;;21.38;48.58
49341;BME280;35209;51.050;13.678;2023-06-01T08:11:54;100168.41;;;21.78;47.95
49341;BME280;35209;51.050;13.678;2023-06-01T08:16:56;100164.81;;;22.36;45.66
49341;BME280;35209;51.050;13.678;2023-06-01T08:21:58;100157.81;;;21.65;46.29
49341;BME280;35209;51.050;13.678;2023-06-01T08:27:00;100158.72;;;21.53;46.50
49341;BME280;35209;51.050;13.678;2023-06-01T08:32:02;100143.13;;;21.71;46.78
49341;BME280;35209;51.050;13.678;2023-06-01T08:37:04;100146.97;;;21.66;47.08
49341;BME280;35209;51.050;13.678;2023-06-01T08:42:07;100140.22;;;21.85;47.87
49341;BME280;35209;51.050;13.678;2023-06-01T08:47:12;100141.91;;;22.55;46.80
49341;BME280;35209;51.050;13.678;2023-06-01T08:52:19;100135.44;;;22.69;46.48
49341;BME280;35209;51.050;13.678;2023-06-01T08:57:22;100135.44;;;22.57;45.26
49341;BME280;35209;51.050;13.678;2023-06-01T09:02:24;100131.13;;;22.88;44.58
49341;BME280;35209;51.050;13.678;2023-06-01T09:07:26;100131.22;;;23.09;43.85
49341;BME280;35209;51.050;13.678;2023-06-01T09:12:30;100123.75;;;23.56;42.48
49341;BME280;35209;51.050;13.678;2023-06-01T09:17:32;100121.06;;;23.98;40.25
49341;BME280;35209;51.050;13.678;2023-06-01T09:22:41;100119.19;;;24.10;40.19
49341;BME280;35209;51.050;13.678;2023-06-01T09:27:48;100111.34;;;24.28;38.65
49341;BME280;35209;51.050;13.678;2023-06-01T09:32:51;100119.03;;;24.73;38.28
49341;BME280;35209;51.050;13.678;2023-06-01T09:38:08;100111.09;;;24.31;39.56
49341;BME280;35209;51.050;13.678;2023-06-01T09:43:20;100108.97;;;25.25;37.82
49341;BME280;35209;51.050;13.678;2023-06-01T09:48:23;100101.41;;;24.99;37.71
49341;BME280;35209;51.050;13.678;2023-06-01T09:53:25;100110.97;;;24.73;36.81
49341;BME280;35209;51.050;13.678;2023-06-01T09:58:27;100102.81;;;24.94;38.72
49341;BME280;35209;51.050;13.678;2023-06-01T10:03:30;100097.75;;;25.39;36.83
49341;BME280;35209;51.050;13.678;2023-06-01T10:08:33;100093.06;;;25.60;37.25
49341;BME280;35209;51.050;13.678;2023-06-01T10:13:35;100094.91;;;25.40;38.24
49341;BME280;35209;51.050;13.678;2023-06-01T10:18:38;100086.84;;;25.31;39.18
49341;BME280;35209;51.050;13.678;2023-06-01T10:23:40;100095.31;;;25.07;39.87
49341;BME280;35209;51.050;13.678;2023-06-01T10:28:45;100086.16;;;25.38;39.54
49341;BME280;35209;51.050;13.678;2023-06-01T10:33:54;100069.19;;;26.04;38.37
49341;BME280;35209;51.050;13.678;2023-06-01T10:54:50;100066.81;;;26.29;38.14
49341;BME280;35209;51.050;13.678;2023-06-01T11:05:44;100059.81;;;26.08;38.05
49341;BME280;35209;51.050;13.678;2023-06-01T11:21:10;100037.28;;;26.09;37.24
49341;BME280;35209;51.050;13.678;2023-06-01T11:26:14;100038.78;;;25.75;36.87
49341;BME280;35209;51.050;13.678;2023-06-01T11:31:18;100040.00;;;26.00;36.70
49341;BME280;35209;51.050;13.678;2023-06-01T11:36:23;100033.16;;;26.70;34.66
49341;BME280;35209;51.050;13.678;2023-06-01T11:41:27;100022.19;;;26.54;35.48
49341;BME280;35209;51.050;13.678;2023-06-01T11:46:29;100017.25;;;26.49;34.98
49341;BME280;35209;51.050;13.678;2023-06-01T11:51:40;100013.38;;;26.24;34.79
49341;BME280;35209;51.050;13.678;2023-06-01T11:56:44;100006.09;;;25.60;35.89
49341;BME280;35209;51.050;13.678;2023-06-01T12:01:48;100005.78;;;26.10;34.56
49341;BME280;35209;51.050;13.678;2023-06-01T12:06:51;99996.50;;;25.95;34.40
49341;BME280;35209;51.050;13.678;2023-06-01T12:11:53;100006.41;;;26.77;34.70
49341;BME280;35209;51.050;13.678;2023-06-01T12:16:57;100000.84;;;26.78;32.29
49341;BME280;35209;51.050;13.678;2023-06-01T12:22:00;100005.63;;;26.49;34.26
49341;BME280;35209;51.050;13.678;2023-06-01T12:27:13;99994.22;;;26.00;35.20
49341;BME280;35209;51.050;13.678;2023-06-01T12:32:18;99990.63;;;25.62;32.10
49341;BME280;35209;51.050;13.678;2023-06-01T12:37:21;99986.44;;;26.24;31.53
49341;BME280;35209;51.050;13.678;2023-06-01T12:42:43;99980.88;;;25.98;31.98
49341;BME280;35209;51.050;13.678;2023-06-01T12:47:45;99978.28;;;26.06;33.50
49341;BME280;35209;51.050;13.678;2023-06-01T12:52:46;99967.72;;;26.68;34.85
49341;BME280;35209;51.050;13.678;2023-06-01T12:57:52;99968.41;;;27.24;31.68
49341;BME280;35209;51.050;13.678;2023-06-01T13:02:54;99979.44;;;26.59;30.57
49341;BME280;35209;51.050;13.678;2023-06-01T13:07:56;99967.09;;;26.29;32.73
49341;BME280;35209;51.050;13.678;2023-06-01T13:12:59;99958.38;;;25.99;32.23
49341;BME280;35209;51.050;13.678;2023-06-01T13:18:01;99956.97;;;25.95;32.92
49341;BME280;35209;51.050;13.678;2023-06-01T13:23:03;99954.88;;;26.16;34.68
49341;BME280;35209;51.050;13.678;2023-06-01T13:28:05;99949.84;;;25.94;34.78
49341;BME280;35209;51.050;13.678;2023-06-01T13:33:09;99953.44;;;25.85;32.73
49341;BME280;35209;51.050;13.678;2023-06-01T13:38:11;99956.47;;;26.09;32.67
49341;BME280;35209;51.050;13.678;2023-06-01T13:43:13;99953.44;;;25.48;35.35
49341;BME280;35209;51.050;13.678;2023-06-01T13:48:15;99955.19;;;25.00;35.64
49341;BME280;35209;51.050;13.678;2023-06-01T13:53:21;99949.91;;;25.28;36.99
49341;BME280;35209;51.050;13.678;2023-06-01T13:58:22;99935.81;;;24.67;36.02
49341;BME280;35209;51.050;13.678;2023-06-01T14:03:24;99933.53;;;24.92;36.01
49341;BME280;35209;51.050;13.678;2023-06-01T14:08:26;99932.44;;;24.85;36.70
49341;BME280;35209;51.050;13.678;2023-06-01T14:13:28;99921.63;;;25.33;35.09
49341;BME280;35209;51.050;13.678;2023-06-01T14:18:29;99919.41;;;24.90;34.05
49341;BME280;35209;51.050;13.678;2023-06-01T14:23:31;99920.81;;;24.94;32.92
49341;BME280;35209;51.050;13.678;2023-06-01T14:28:34;99915.06;;;25.36;30.76
49341;BME280;35209;51.050;13.678;2023-06-01T14:33:35;99918.41;;;25.57;29.43
49341;BME280;35209;51.050;13.678;2023-06-01T14:38:38;99908.41;;;25.40;29.19
49341;BME280;35209;51.050;13.678;2023-06-01T14:43:40;99911.16;;;25.58;28.64
49341;BME280;35209;51.050;13.678;2023-06-01T14:48:42;99912.31;;;25.92;27.83
49341;BME280;35209;51.050;13.678;2023-06-01T14:53:44;99911.13;;;25.30;31.64
49341;BME280;35209;51.050;13.678;2023-06-01T14:58:47;99911.16;;;25.58;29.83
49341;BME280;35209;51.050;13.678;2023-06-01T15:03:49;99908.03;;;25.25;24.89
49341;BME280;35209;51.050;13.678;2023-06-01T15:08:51;99907.56;;;25.39;26.42
49341;BME280;35209;51.050;13.678;2023-06-01T15:13:53;99895.50;;;25.44;27.25
49341;BME280;35209;51.050;13.678;2023-06-01T15:18:54;99896.81;;;25.77;27.17
49341;BME280;35209;51.050;13.678;2023-06-01T15:23:56;99892.59;;;26.37;26.93
49341;BME280;35209;51.050;13.678;2023-06-01T15:28:58;99883.28;;;25.49;28.64
49341;BME280;35209;51.050;13.678;2023-06-01T15:34:00;99880.00;;;25.92;27.89
49341;BME280;35209;51.050;13.678;2023-06-01T15:39:02;99878.34;;;26.27;28.07
49341;BME280;35209;51.050;13.678;2023-06-01T15:44:05;99873.16;;;26.16;28.23
49341;BME280;35209;51.050;13.678;2023-06-01T15:49:07;99865.78;;;26.00;28.90
49341;BME280;35209;51.050;13.678;2023-06-01T15:54:09;99861.88;;;25.57;30.92
49341;BME280;35209;51.050;13.678;2023-06-01T15:59:11;99862.59;;;25.22;31.90
49341;BME280;35209;51.050;13.678;2023-06-01T16:04:13;99861.50;;;25.15;31.84
49341;BME280;35209;51.050;13.678;2023-06-01T16:09:17;99848.84;;;25.25;31.45
49341;BME280;35209;51.050;13.678;2023-06-01T16:14:19;99844.81;;;24.82;32.45
49341;BME280;35209;51.050;13.678;2023-06-01T16:19:21;99839.88;;;24.78;32.87
49341;BME280;35209;51.050;13.678;2023-06-01T16:24:22;99839.38;;;24.45;34.55
49341;BME280;35209;51.050;13.678;2023-06-01T16:29:24;99836.94;;;23.63;34.62
49341;BME280;35209;51.050;13.678;2023-06-01T16:34:26;99846.69;;;23.24;35.56
49341;BME280;35209;51.050;13.678;2023-06-01T16:39:28;99834.91;;;23.15;34.64
49341;BME280;35209;51.050;13.678;2023-06-01T16:44:30;99832.41;;;23.63;34.23
49341;BME280;35209;51.050;13.678;2023-06-01T16:49:31;99831.97;;;23.49;34.38
49341;BME280;35209;51.050;13.678;2023-06-01T16:54:33;99831.84;;;23.20;34.02
49341;BME280;35209;51.050;13.678;2023-06-01T16:59:36;99826.03;;;23.14;33.61
49341;BME280;35209;51.050;13.678;2023-06-01T17:04:38;99822.75;;;22.80;34.80
49341;BME280;35209;51.050;13.678;2023-06-01T17:09:40;99812.16;;;22.58;34.92
49341;BME280;35209;51.050;13.678;2023-06-01T17:14:46;99815.13;;;22.11;36.27
49341;BME280;35209;51.050;13.678;2023-06-01T17:19:48;99817.00;;;22.00;36.35
49341;BME280;35209;51.050;13.678;2023-06-01T17:24:50;99819.91;;;22.08;36.29
49341;BME280;35209;51.050;13.678;2023-06-01T17:29:52;99820.94;;;21.84;36.75
49341;BME280;35209;51.050;13.678;2023-06-01T17:34:54;99822.56;;;21.76;37.45
49341;BME280;35209;51.050;13.678;2023-06-01T17:39:55;99811.66;;;21.45;38.65
49341;BME280;35209;51.050;13.678;2023-06-01T17:44:57;99819.72;;;21.34;38.17
49341;BME280;35209;51.050;13.678;2023-06-01T17:49:59;99814.94;;;21.49;37.85
49341;BME280;35209;51.050;13.678;2023-06-01T17:55:01;99815.16;;;21.23;38.22
49341;BME280;35209;51.050;13.678;2023-06-01T18:00:03;99823.69;;;21.17;38.98
49341;BME280;35209;51.050;13.678;2023-06-01T18:05:08;99820.50;;;20.89;39.12
49341;BME280;35209;51.050;13.678;2023-06-01T18:10:10;99820.63;;;20.99;39.20
49341;BME280;35209;51.050;13.678;2023-06-01T18:15:12;99813.31;;;20.79;39.88
49341;BME280;35209;51.050;13.678;2023-06-01T18:20:14;99815.97;;;20.68;40.71
49341;BME280;35209;51.050;13.678;2023-06-01T18:25:16;99808.91;;;20.66;41.09
49341;BME280;35209;51.050;13.678;2023-06-01T18:30:17;99812.78;;;20.51;41.63
49341;BME280;35209;51.050;13.678;2023-06-01T18:35:19;99818.66;;;20.32;42.12
49341;BME280;35209;51.050;13.678;2023-06-01T18:40:21;99815.97;;;20.08;43.28
49341;BME280;35209;51.050;13.678;2023-06-01T18:45:24;99821.09;;;19.87;43.66
49341;BME280;35209;51.050;13.678;2023-06-01T18:50:28;99825.19;;;19.80;44.11
49341;BME280;35209;51.050;13.678;2023-06-01T18:55:31;99826.91;;;19.69;44.90
49341;BME280;35209;51.050;13.678;2023-06-01T19:00:33;99836.22;;;19.63;45.03
49341;BME280;35209;51.050;13.678;2023-06-01T19:05:34;99833.38;;;19.40;45.82
49341;BME280;35209;51.050;13.678;2023-06-01T19:10:55;99848.94;;;19.34;46.38
49341;BME280;35209;51.050;13.678;2023-06-01T19:16:04;99846.19;;;19.23;46.75
49341;BME280;35209;51.050;13.678;2023-06-01T19:21:11;99846.53;;;19.05;47.45
49341;BME280;35209;51.050;13.678;2023-06-01T19:26:14;99853.13;;;19.00;47.93
49341;BME280;35209;51.050;13.678;2023-06-01T19:31:22;99851.72;;;18.81;48.58
49341;BME280;35209;51.050;13.678;2023-06-01T19:36:54;99863.38;;;18.53;50.07
49341;BME280;35209;51.050;13.678;2023-06-01T19:42:01;99859.75;;;18.54;49.82
49341;BME280;35209;51.050;13.678;2023-06-01T19:47:03;99861.91;;;18.22;51.15
49341;BME280;35209;51.050;13.678;2023-06-01T19:52:07;99868.38;;;18.18;51.51
49341;BME280;35209;51.050;13.678;2023-06-01T19:57:09;99871.75;;;18.07;51.72
49341;BME280;35209;51.050;13.678;2023-06-01T20:02:33;99869.81;;;17.82;52.47
49341;BME280;35209;51.050;13.678;2023-06-01T20:07:41;99868.75;;;17.71;52.90
49341;BME280;35209;51.050;13.678;2023-06-01T20:12:43;99875.16;;;17.68;53.71
49341;BME280;35209;51.050;13.678;2023-06-01T20:17:45;99882.47;;;17.50;54.66
49341;BME280;35209;51.050;13.678;2023-06-01T20:22:47;99883.63;;;17.46;55.14
49341;BME280;35209;51.050;13.678;2023-06-01T20:27:49;99884.19;;;17.23;56.95
49341;BME280;35209;51.050;13.678;2023-06-01T20:32:53;99890.06;;;17.42;56.89
49341;BME280;35209;51.050;13.678;2023-06-01T20:37:55;99892.72;;;17.13;58.58
49341;BME280;35209;51.050;13.678;2023-06-01T20:42:56;99894.50;;;17.13;59.67
49341;BME280;35209;51.050;13.678;2023-06-01T20:47:58;99887.25;;;16.86;61.59
49341;BME280;35209;51.050;13.678;2023-06-01T20:53:00;99899.69;;;16.86;62.54
49341;BME280;35209;51.050;13.678;2023-06-01T20:58:02;99896.56;;;16.63;64.32
49341;BME280;35209;51.050;13.678;2023-06-01T21:03:03;99900.72;;;16.53;64.88
49341;BME280;35209;51.050;13.678;2023-06-01T21:08:05;99900.94;;;16.34;66.05
49341;BME280;35209;51.050;13.678;2023-06-01T21:13:08;99903.28;;;16.25;67.19
49341;BME280;35209;51.050;13.678;2023-06-01T21:18:10;99914.09;;;16.20;67.39
49341;BME280;35209;51.050;13.678;2023-06-01T21:23:12;99914.81;;;16.08;68.32
49341;BME280;35209;51.050;13.678;2023-06-01T21:28:14;99912.78;;;15.81;69.71
49341;BME280;35209;51.050;13.678;2023-06-01T21:33:15;99924.06;;;15.85;69.70
49341;BME280;35209;51.050;13.678;2023-06-01T21:38:17;99924.13;;;15.68;70.85
49341;BME280;35209;51.050;13.678;2023-06-01T21:43:20;99921.97;;;15.58;71.48
49341;BME280;35209;51.050;13.678;2023-06-01T21:48:23;99931.25;;;15.50;72.49
49341;BME280;35209;51.050;13.678;2023-06-01T21:53:25;99929.09;;;15.41;72.74
49341;BME280;35209;51.050;13.678;2023-06-01T21:58:27;99928.13;;;15.08;75.03
49341;BME280;35209;51.050;13.678;2023-06-01T22:03:31;99938.25;;;15.00;74.52
49341;BME280;35209;51.050;13.678;2023-06-01T22:08:33;99944.44;;;15.01;75.08
49341;BME280;35209;51.050;13.678;2023-06-01T22:13:35;99953.13;;;14.85;75.64
49341;BME280;35209;51.050;13.678;2023-06-01T22:18:37;99953.84;;;14.72;75.94
49341;BME280;35209;51.050;13.678;2023-06-01T22:23:38;99951.03;;;14.75;75.66
49341;BME280;35209;51.050;13.678;2023-06-01T22:28:40;99959.25;;;14.69;75.73
49341;BME280;35209;51.050;13.678;2023-06-01T22:33:42;99962.09;;;14.66;75.66
49341;BME280;35209;51.050;13.678;2023-06-01T22:38:44;99969.97;;;14.29;77.59
49341;BME280;35209;51.050;13.678;2023-06-01T22:43:46;99978.13;;;14.44;76.20
49341;BME280;35209;51.050;13.678;2023-06-01T22:48:49;99981.75;;;14.41;76.48
49341;BME280;35209;51.050;13.678;2023-06-01T22:53:51;99984.88;;;14.13;77.76
49341;BME280;35209;51.050;13.678;2023-06-01T22:58:53;99980.00;;;14.23;77.04
49341;BME280;35209;51.050;13.678;2023-06-01T23:03:55;99981.38;;;14.12;77.48
49341;BME280;35209;51.050;13.678;2023-06-01T23:08:57;99979.72;;;14.10;77.03
49341;BME280;35209;51.050;13.678;2023-06-01T23:13:59;99994.94;;;14.05;77.16
49341;BME280;35209;51.050;13.678;2023-06-01T23:19:01;99993.59;;;13.96;77.37
49341;BME280;35209;51.050;13.678;2023-06-01T23:24:05;99994.44;;;13.97;77.59
49341;BME280;35209;51.050;13.678;2023-06-01T23:29:07;99993.88;;;13.90;77.42
49341;BME280;35209;51.050;13.678;2023-06-01T23:34:10;99998.38;;;13.68;78.33
49341;BME280;35209;51.050;13.678;2023-06-01T23:39:12;99986.56;;;13.76;77.78
49341;BME280;35209;51.050;13.678;2023-06-01T23:44:14;99988.91;;;13.63;78.18
49341;BME280;35209;51.050;13.678;2023-06-01T23:49:17;99987.13;;;13.64;78.21
49341;BME280;35209;51.050;13.678;2023-06-01T23:54:19;99997.63;;;13.45;79.01
49341;BME280;35209;51.050;13.678;2023-06-01T23:59:21;99993.38;;;13.43;78.89
